sensor_id;sensor_type;location;lat;lon;timestamp;P1;durP1;ratioP1;P2;durP2;ratioP2
43118;SDS011;28729;49.838;8.650;2023-12-22T00:02:41;4.22;;;0.30;;
43118;SDS011;28729;49.838;8.650;2023-12-22T00:06:43;0.32;;;0.30;;
43118;SDS011;28729;49.838;8.650;2023-12-22T00:10:45;0.20;;;0.20;;
43118;SDS011;28729;49.838;8.650;2023-12-22T00:14:47;1.63;;;0.25;;
43118;SDS011;28729;49.838;8.650;2023-12-22T00:18:48;0.35;;;0.35;;
43118;SDS011;28729;49.838;8.650;2023-12-22T00:22:50;0.98;;;0.25;;
43118;SDS011;28729;49.838;8.650;2023-12-22T00:26:52;0.20;;;0.20;;
43118;SDS011;28729;49.838;8.650;2023-12-22T00:30:54;0.30;;;0.20;;
43118;SDS011;28729;49.838;8.650;2023-12-22T00:34:55;1.85;;;0.30;;
43118;SDS011;28729;49.838;8.650;2023-12-22T00:38:59;0.28;;;0.22;;
43118;SDS011;28729;49.838;8.650;2023-12-22T00:43:01;0.68;;;0.20;;
43118;SDS011;28729;49.838;8.650;2023-12-22T00:47:03;1.60;;;0.30;;
43118;SDS011;28729;49.838;8.650;2023-12-22T00:51:05;1.20;;;0.37;;
43118;SDS011;28729;49.838;8.650;2023-12-22T00:55:09;0.40;;;0.40;;
43118;SDS011;28729;49.838;8.650;2023-12-22T00:59:10;0.88;;;0.30;;
43118;SDS011;28729;49.838;8.650;2023-12-22T01:03:12;2.23;;;0.77;;
43118;SDS011;28729;49.838;8.650;2023-12-22T01:07:24;1.30;;;0.30;;
43118;SDS011;28729;49.838;8.650;2023-12-22T01:11:27;1.52;;;0.32;;
43118;SDS011;28729;49.838;8.650;2023-12-22T01:15:29;1.80;;;0.52;;
43118;SDS011;28729;49.838;8.650;2023-12-22T01:19:32;0.63;;;0.32;;
43118;SDS011;28729;49.838;8.650;2023-12-22T01:23:34;1.52;;;0.40;;
43118;SDS011;28729;49.838;8.650;2023-12-22T01:27:36;1.75;;;0.60;;
43118;SDS011;28729;49.838;8.650;2023-12-22T01:31:38;2.13;;;0.43;;
43118;SDS011;28729;49.838;8.650;2023-12-22T01:35:40;0.65;;;0.30;;
43118;SDS011;28729;49.838;8.650;2023-12-22T01:39:42;1.25;;;0.40;;
43118;SDS011;28729;49.838;8.650;2023-12-22T01:43:44;1.92;;;0.50;;
43118;SDS011;28729;49.838;8.650;2023-12-22T01:47:46;3.67;;;0.52;;
43118;SDS011;28729;49.838;8.650;2023-12-22T01:51:49;0.95;;;0.40;;
43118;SDS011;28729;49.838;8.650;2023-12-22T01:55:51;1.25;;;0.30;;
43118;SDS011;28729;49.838;8.650;2023-12-22T01:59:54;0.75;;;0.40;;
43118;SDS011;28729;49.838;8.650;2023-12-22T02:03:58;1.33;;;0.40;;
43118;SDS011;28729;49.838;8.650;2023-12-22T02:12:03;1.08;;;0.40;;
43118;SDS011;28729;49.838;8.650;2023-12-22T02:16:07;1.17;;;0.53;;
43118;SDS011;28729;49.838;8.650;2023-12-22T02:20:17;1.43;;;0.50;;
43118;SDS011;28729;49.838;8.650;2023-12-22T02:24:19;2.50;;;0.50;;
43118;SDS011;28729;49.838;8.650;2023-12-22T02:28:21;2.70;;;0.45;;
43118;SDS011;28729;49.838;8.650;2023-12-22T02:32:27;3.47;;;0.52;;
43118;SDS011;28729;49.838;8.650;2023-12-22T02:36:31;1.20;;;0.38;;
43118;SDS011;28729;49.838;8.650;2023-12-22T02:40:38;7.30;;;0.70;;
43118;SDS011;28729;49.838;8.650;2023-12-22T02:48:42;0.57;;;0.40;;
43118;SDS011;28729;49.838;8.650;2023-12-22T02:52:45;1.77;;;0.50;;
43118;SDS011;28729;49.838;8.650;2023-12-22T02:56:47;2.20;;;0.45;;
43118;SDS011;28729;49.838;8.650;2023-12-22T03:00:49;2.10;;;0.50;;
43118;SDS011;28729;49.838;8.650;2023-12-22T03:04:51;4.18;;;1.05;;
43118;SDS011;28729;49.838;8.650;2023-12-22T03:08:53;0.87;;;0.37;;
43118;SDS011;28729;49.838;8.650;2023-12-22T03:12:55;1.67;;;0.40;;
43118;SDS011;28729;49.838;8.650;2023-12-22T03:16:57;0.40;;;0.30;;
43118;SDS011;28729;49.838;8.650;2023-12-22T03:20:59;2.07;;;0.50;;
43118;SDS011;28729;49.838;8.650;2023-12-22T03:25:01;2.08;;;0.88;;
43118;SDS011;28729;49.838;8.650;2023-12-22T03:29:03;2.05;;;0.65;;
43118;SDS011;28729;49.838;8.650;2023-12-22T03:33:05;2.00;;;0.50;;
43118;SDS011;28729;49.838;8.650;2023-12-22T03:37:08;3.13;;;0.65;;
43118;SDS011;28729;49.838;8.650;2023-12-22T03:41:10;3.47;;;0.88;;
43118;SDS011;28729;49.838;8.650;2023-12-22T03:45:11;1.85;;;0.50;;
43118;SDS011;28729;49.838;8.650;2023-12-22T03:49:13;1.23;;;0.55;;
43118;SDS011;28729;49.838;8.650;2023-12-22T03:53:15;1.98;;;1.00;;
43118;SDS011;28729;49.838;8.650;2023-12-22T03:57:17;4.25;;;0.63;;
43118;SDS011;28729;49.838;8.650;2023-12-22T04:01:19;0.55;;;0.43;;
43118;SDS011;28729;49.838;8.650;2023-12-22T04:05:21;4.73;;;1.07;;
43118;SDS011;28729;49.838;8.650;2023-12-22T04:09:23;2.25;;;0.60;;
43118;SDS011;28729;49.838;8.650;2023-12-22T04:13:25;2.40;;;0.95;;
43118;SDS011;28729;49.838;8.650;2023-12-22T04:17:27;2.83;;;0.80;;
43118;SDS011;28729;49.838;8.650;2023-12-22T04:21:28;5.00;;;1.17;;
43118;SDS011;28729;49.838;8.650;2023-12-22T04:25:30;2.28;;;0.55;;
43118;SDS011;28729;49.838;8.650;2023-12-22T04:29:32;2.58;;;0.68;;
43118;SDS011;28729;49.838;8.650;2023-12-22T04:33:34;3.78;;;0.60;;
43118;SDS011;28729;49.838;8.650;2023-12-22T04:37:36;4.10;;;1.10;;
43118;SDS011;28729;49.838;8.650;2023-12-22T04:41:37;2.80;;;0.60;;
43118;SDS011;28729;49.838;8.650;2023-12-22T04:45:40;2.42;;;0.73;;
43118;SDS011;28729;49.838;8.650;2023-12-22T04:49:42;1.85;;;0.77;;
43118;SDS011;28729;49.838;8.650;2023-12-22T04:53:43;2.65;;;0.63;;
43118;SDS011;28729;49.838;8.650;2023-12-22T04:57:45;5.15;;;0.73;;
43118;SDS011;28729;49.838;8.650;2023-12-22T05:01:47;1.80;;;0.40;;
43118;SDS011;28729;49.838;8.650;2023-12-22T05:05:49;3.30;;;0.43;;
43118;SDS011;28729;49.838;8.650;2023-12-22T05:09:51;0.43;;;0.43;;
43118;SDS011;28729;49.838;8.650;2023-12-22T05:13:54;0.63;;;0.50;;
43118;SDS011;28729;49.838;8.650;2023-12-22T05:17:56;3.95;;;0.43;;
43118;SDS011;28729;49.838;8.650;2023-12-22T05:21:57;1.13;;;0.45;;
43118;SDS011;28729;49.838;8.650;2023-12-22T05:25:59;2.88;;;0.90;;
43118;SDS011;28729;49.838;8.650;2023-12-22T05:30:01;4.00;;;0.70;;
43118;SDS011;28729;49.838;8.650;2023-12-22T05:34:05;7.60;;;0.93;;
43118;SDS011;28729;49.838;8.650;2023-12-22T05:38:07;7.05;;;0.73;;
43118;SDS011;28729;49.838;8.650;2023-12-22T05:42:09;2.10;;;0.77;;
43118;SDS011;28729;49.838;8.650;2023-12-22T05:46:11;1.97;;;1.30;;
43118;SDS011;28729;49.838;8.650;2023-12-22T05:50:13;3.90;;;0.70;;
43118;SDS011;28729;49.838;8.650;2023-12-22T05:54:15;2.17;;;0.60;;
43118;SDS011;28729;49.838;8.650;2023-12-22T05:58:18;5.78;;;0.88;;
43118;SDS011;28729;49.838;8.650;2023-12-22T06:02:20;3.13;;;0.77;;
43118;SDS011;28729;49.838;8.650;2023-12-22T06:06:22;3.60;;;0.88;;
43118;SDS011;28729;49.838;8.650;2023-12-22T06:10:24;4.53;;;0.90;;
43118;SDS011;28729;49.838;8.650;2023-12-22T06:14:26;2.08;;;0.77;;
43118;SDS011;28729;49.838;8.650;2023-12-22T06:18:28;5.93;;;1.30;;
43118;SDS011;28729;49.838;8.650;2023-12-22T06:22:30;2.58;;;0.90;;
43118;SDS011;28729;49.838;8.650;2023-12-22T06:26:32;3.60;;;0.55;;
43118;SDS011;28729;49.838;8.650;2023-12-22T06:30:34;1.33;;;0.85;;
43118;SDS011;28729;49.838;8.650;2023-12-22T06:34:37;4.18;;;1.17;;
43118;SDS011;28729;49.838;8.650;2023-12-22T06:38:38;4.72;;;1.02;;
43118;SDS011;28729;49.838;8.650;2023-12-22T06:42:40;3.78;;;1.08;;
43118;SDS011;28729;49.838;8.650;2023-12-22T06:46:42;6.30;;;0.98;;
43118;SDS011;28729;49.838;8.650;2023-12-22T06:50:44;3.07;;;1.03;;
43118;SDS011;28729;49.838;8.650;2023-12-22T06:54:47;4.68;;;0.70;;
43118;SDS011;28729;49.838;8.650;2023-12-22T06:58:51;3.30;;;0.95;;
43118;SDS011;28729;49.838;8.650;2023-12-22T07:02:54;4.93;;;1.10;;
43118;SDS011;28729;49.838;8.650;2023-12-22T07:06:59;4.18;;;1.08;;
43118;SDS011;28729;49.838;8.650;2023-12-22T07:15:04;6.50;;;1.08;;
43118;SDS011;28729;49.838;8.650;2023-12-22T07:19:08;6.18;;;1.48;;
43118;SDS011;28729;49.838;8.650;2023-12-22T07:23:10;3.40;;;1.02;;
43118;SDS011;28729;49.838;8.650;2023-12-22T07:27:13;5.68;;;1.58;;
43118;SDS011;28729;49.838;8.650;2023-12-22T07:31:16;2.42;;;1.00;;
43118;SDS011;28729;49.838;8.650;2023-12-22T07:35:18;4.15;;;1.20;;
43118;SDS011;28729;49.838;8.650;2023-12-22T07:39:20;5.07;;;1.67;;
43118;SDS011;28729;49.838;8.650;2023-12-22T07:47:26;4.70;;;1.33;;
43118;SDS011;28729;49.838;8.650;2023-12-22T07:51:28;6.60;;;1.58;;
43118;SDS011;28729;49.838;8.650;2023-12-22T07:55:30;9.65;;;2.28;;
43118;SDS011;28729;49.838;8.650;2023-12-22T07:59:32;11.00;;;1.90;;
43118;SDS011;28729;49.838;8.650;2023-12-22T08:03:34;6.47;;;1.25;;
43118;SDS011;28729;49.838;8.650;2023-12-22T08:07:36;7.10;;;1.50;;
43118;SDS011;28729;49.838;8.650;2023-12-22T08:11:38;4.20;;;1.20;;
43118;SDS011;28729;49.838;8.650;2023-12-22T08:15:39;9.82;;;1.33;;
43118;SDS011;28729;49.838;8.650;2023-12-22T08:23:48;4.75;;;1.42;;
43118;SDS011;28729;49.838;8.650;2023-12-22T08:27:56;4.38;;;1.00;;
43118;SDS011;28729;49.838;8.650;2023-12-22T08:31:59;5.85;;;0.90;;
43118;SDS011;28729;49.838;8.650;2023-12-22T08:36:02;7.53;;;1.50;;
43118;SDS011;28729;49.838;8.650;2023-12-22T08:40:04;5.97;;;1.00;;
43118;SDS011;28729;49.838;8.650;2023-12-22T08:44:07;2.83;;;0.82;;
43118;SDS011;28729;49.838;8.650;2023-12-22T08:48:10;4.18;;;0.82;;
43118;SDS011;28729;49.838;8.650;2023-12-22T08:52:12;2.45;;;0.55;;
43118;SDS011;28729;49.838;8.650;2023-12-22T08:56:15;9.07;;;0.90;;
43118;SDS011;28729;49.838;8.650;2023-12-22T09:00:18;3.80;;;0.90;;
43118;SDS011;28729;49.838;8.650;2023-12-22T09:04:20;3.17;;;0.70;;
43118;SDS011;28729;49.838;8.650;2023-12-22T09:08:24;4.35;;;1.23;;
43118;SDS011;28729;49.838;8.650;2023-12-22T09:12:26;8.98;;;1.42;;
43118;SDS011;28729;49.838;8.650;2023-12-22T09:16:28;9.40;;;1.10;;
43118;SDS011;28729;49.838;8.650;2023-12-22T09:20:29;2.83;;;0.90;;
43118;SDS011;28729;49.838;8.650;2023-12-22T09:24:34;6.28;;;1.00;;
43118;SDS011;28729;49.838;8.650;2023-12-22T09:28:36;3.15;;;0.80;;
43118;SDS011;28729;49.838;8.650;2023-12-22T09:32:38;5.15;;;1.00;;
43118;SDS011;28729;49.838;8.650;2023-12-22T09:36:40;5.50;;;1.43;;
43118;SDS011;28729;49.838;8.650;2023-12-22T09:40:42;3.28;;;1.33;;
43118;SDS011;28729;49.838;8.650;2023-12-22T09:44:44;5.78;;;1.85;;
43118;SDS011;28729;49.838;8.650;2023-12-22T09:48:50;3.00;;;1.20;;
43118;SDS011;28729;49.838;8.650;2023-12-22T09:52:53;3.47;;;1.13;;
43118;SDS011;28729;49.838;8.650;2023-12-22T09:56:55;7.57;;;1.23;;
43118;SDS011;28729;49.838;8.650;2023-12-22T10:00:59;5.63;;;1.52;;
43118;SDS011;28729;49.838;8.650;2023-12-22T10:05:03;9.95;;;1.90;;
43118;SDS011;28729;49.838;8.650;2023-12-22T10:09:06;9.67;;;2.40;;
43118;SDS011;28729;49.838;8.650;2023-12-22T10:13:10;5.93;;;2.05;;
43118;SDS011;28729;49.838;8.650;2023-12-22T10:21:16;12.80;;;2.63;;
43118;SDS011;28729;49.838;8.650;2023-12-22T10:25:20;13.98;;;3.28;;
43118;SDS011;28729;49.838;8.650;2023-12-22T10:29:24;16.00;;;2.70;;
43118;SDS011;28729;49.838;8.650;2023-12-22T10:33:26;17.65;;;2.67;;
43118;SDS011;28729;49.838;8.650;2023-12-22T10:37:28;8.68;;;2.45;;
43118;SDS011;28729;49.838;8.650;2023-12-22T10:41:30;6.72;;;1.55;;
43118;SDS011;28729;49.838;8.650;2023-12-22T10:45:32;11.50;;;2.72;;
43118;SDS011;28729;49.838;8.650;2023-12-22T10:49:34;13.77;;;2.58;;
43118;SDS011;28729;49.838;8.650;2023-12-22T10:53:41;12.48;;;3.13;;
43118;SDS011;28729;49.838;8.650;2023-12-22T10:57:46;11.73;;;2.10;;
43118;SDS011;28729;49.838;8.650;2023-12-22T11:01:51;13.35;;;3.00;;
43118;SDS011;28729;49.838;8.650;2023-12-22T11:05:53;17.08;;;3.08;;
43118;SDS011;28729;49.838;8.650;2023-12-22T11:09:59;11.38;;;2.33;;
43118;SDS011;28729;49.838;8.650;2023-12-22T11:14:06;12.63;;;2.00;;
43118;SDS011;28729;49.838;8.650;2023-12-22T11:18:08;13.35;;;2.33;;
43118;SDS011;28729;49.838;8.650;2023-12-22T11:22:11;9.95;;;2.25;;
43118;SDS011;28729;49.838;8.650;2023-12-22T11:26:15;8.02;;;1.90;;
43118;SDS011;28729;49.838;8.650;2023-12-22T11:30:18;9.88;;;2.47;;
43118;SDS011;28729;49.838;8.650;2023-12-22T11:34:21;10.40;;;2.20;;
43118;SDS011;28729;49.838;8.650;2023-12-22T11:38:25;12.18;;;2.70;;
43118;SDS011;28729;49.838;8.650;2023-12-22T11:42:30;9.38;;;2.13;;
43118;SDS011;28729;49.838;8.650;2023-12-22T11:46:38;10.77;;;1.90;;
43118;SDS011;28729;49.838;8.650;2023-12-22T11:50:40;10.38;;;2.95;;
43118;SDS011;28729;49.838;8.650;2023-12-22T11:54:48;11.68;;;2.67;;
43118;SDS011;28729;49.838;8.650;2023-12-22T11:58:52;10.68;;;1.80;;
43118;SDS011;28729;49.838;8.650;2023-12-22T12:02:56;8.90;;;1.75;;
43118;SDS011;28729;49.838;8.650;2023-12-22T12:06:58;5.50;;;1.50;;
43118;SDS011;28729;49.838;8.650;2023-12-22T12:11:00;9.25;;;1.52;;
43118;SDS011;28729;49.838;8.650;2023-12-22T12:15:08;11.18;;;2.17;;
43118;SDS011;28729;49.838;8.650;2023-12-22T12:19:12;6.60;;;1.60;;
43118;SDS011;28729;49.838;8.650;2023-12-22T12:23:17;6.93;;;1.77;;
43118;SDS011;28729;49.838;8.650;2023-12-22T12:27:19;9.45;;;1.88;;
43118;SDS011;28729;49.838;8.650;2023-12-22T12:31:21;13.48;;;1.92;;
43118;SDS011;28729;49.838;8.650;2023-12-22T12:35:38;7.38;;;1.98;;
43118;SDS011;28729;49.838;8.650;2023-12-22T12:39:46;8.43;;;1.88;;
43118;SDS011;28729;49.838;8.650;2023-12-22T12:43:49;10.15;;;2.15;;
43118;SDS011;28729;49.838;8.650;2023-12-22T12:47:59;7.88;;;2.47;;
43118;SDS011;28729;49.838;8.650;2023-12-22T12:52:04;10.18;;;3.10;;
43118;SDS011;28729;49.838;8.650;2023-12-22T12:56:11;8.25;;;2.47;;
43118;SDS011;28729;49.838;8.650;2023-12-22T13:00:25;8.75;;;2.00;;
43118;SDS011;28729;49.838;8.650;2023-12-22T13:04:37;12.77;;;2.75;;
43118;SDS011;28729;49.838;8.650;2023-12-22T13:08:51;13.10;;;2.00;;
43118;SDS011;28729;49.838;8.650;2023-12-22T13:12:53;9.23;;;1.85;;
43118;SDS011;28729;49.838;8.650;2023-12-22T13:16:56;5.90;;;1.20;;
43118;SDS011;28729;49.838;8.650;2023-12-22T13:21:00;4.40;;;1.20;;
43118;SDS011;28729;49.838;8.650;2023-12-22T13:25:02;4.18;;;0.77;;
43118;SDS011;28729;49.838;8.650;2023-12-22T13:29:04;1.97;;;0.60;;
43118;SDS011;28729;49.838;8.650;2023-12-22T13:33:07;4.38;;;0.77;;
43118;SDS011;28729;49.838;8.650;2023-12-22T13:41:11;1.42;;;0.30;;
43118;SDS011;28729;49.838;8.650;2023-12-22T13:45:14;2.80;;;0.90;;
43118;SDS011;28729;49.838;8.650;2023-12-22T13:49:16;3.77;;;0.50;;
43118;SDS011;28729;49.838;8.650;2023-12-22T13:53:18;0.73;;;0.50;;
43118;SDS011;28729;49.838;8.650;2023-12-22T13:57:20;1.63;;;0.33;;
43118;SDS011;28729;49.838;8.650;2023-12-22T14:01:26;1.80;;;0.30;;
43118;SDS011;28729;49.838;8.650;2023-12-22T14:05:29;0.88;;;0.47;;
43118;SDS011;28729;49.838;8.650;2023-12-22T14:09:35;5.50;;;0.47;;
43118;SDS011;28729;49.838;8.650;2023-12-22T14:13:40;2.67;;;0.70;;
43118;SDS011;28729;49.838;8.650;2023-12-22T14:17:42;3.53;;;0.63;;
43118;SDS011;28729;49.838;8.650;2023-12-22T14:21:44;1.47;;;0.60;;
43118;SDS011;28729;49.838;8.650;2023-12-22T14:25:46;1.50;;;0.55;;
43118;SDS011;28729;49.838;8.650;2023-12-22T14:29:48;2.83;;;0.60;;
43118;SDS011;28729;49.838;8.650;2023-12-22T14:33:50;1.27;;;0.50;;
43118;SDS011;28729;49.838;8.650;2023-12-22T14:37:52;0.80;;;0.50;;
43118;SDS011;28729;49.838;8.650;2023-12-22T14:41:55;2.90;;;0.88;;
43118;SDS011;28729;49.838;8.650;2023-12-22T14:45:57;1.00;;;0.60;;
43118;SDS011;28729;49.838;8.650;2023-12-22T14:49:59;1.83;;;0.67;;
43118;SDS011;28729;49.838;8.650;2023-12-22T14:54:05;9.02;;;5.25;;
43118;SDS011;28729;49.838;8.650;2023-12-22T14:58:08;4.47;;;1.25;;
43118;SDS011;28729;49.838;8.650;2023-12-22T15:02:11;1.55;;;0.90;;
43118;SDS011;28729;49.838;8.650;2023-12-22T15:06:13;0.70;;;0.57;;
43118;SDS011;28729;49.838;8.650;2023-12-22T15:10:15;1.08;;;0.65;;
43118;SDS011;28729;49.838;8.650;2023-12-22T15:14:17;3.00;;;0.55;;
43118;SDS011;28729;49.838;8.650;2023-12-22T15:18:19;1.30;;;0.57;;
43118;SDS011;28729;49.838;8.650;2023-12-22T15:22:20;1.48;;;0.40;;
43118;SDS011;28729;49.838;8.650;2023-12-22T15:26:24;4.38;;;0.50;;
43118;SDS011;28729;49.838;8.650;2023-12-22T15:30:29;0.40;;;0.40;;
43118;SDS011;28729;49.838;8.650;2023-12-22T15:34:31;1.45;;;0.40;;
43118;SDS011;28729;49.838;8.650;2023-12-22T15:38:33;0.63;;;0.22;;
43118;SDS011;28729;49.838;8.650;2023-12-22T15:42:36;0.55;;;0.40;;
43118;SDS011;28729;49.838;8.650;2023-12-22T15:46:38;0.90;;;0.30;;
43118;SDS011;28729;49.838;8.650;2023-12-22T15:50:40;0.30;;;0.30;;
43118;SDS011;28729;49.838;8.650;2023-12-22T15:54:42;0.52;;;0.30;;
43118;SDS011;28729;49.838;8.650;2023-12-22T15:58:44;0.30;;;0.30;;
43118;SDS011;28729;49.838;8.650;2023-12-22T16:02:46;2.28;;;0.52;;
43118;SDS011;28729;49.838;8.650;2023-12-22T16:06:48;2.95;;;0.50;;
43118;SDS011;28729;49.838;8.650;2023-12-22T16:10:50;2.38;;;0.63;;
43118;SDS011;28729;49.838;8.650;2023-12-22T16:14:52;3.88;;;0.70;;
43118;SDS011;28729;49.838;8.650;2023-12-22T16:18:56;0.95;;;0.50;;
43118;SDS011;28729;49.838;8.650;2023-12-22T16:27:01;0.47;;;0.47;;
43118;SDS011;28729;49.838;8.650;2023-12-22T16:31:02;1.48;;;0.63;;
43118;SDS011;28729;49.838;8.650;2023-12-22T16:35:05;1.80;;;0.70;;
43118;SDS011;28729;49.838;8.650;2023-12-22T16:39:07;0.90;;;0.60;;
43118;SDS011;28729;49.838;8.650;2023-12-22T16:43:09;0.95;;;0.50;;
43118;SDS011;28729;49.838;8.650;2023-12-22T16:47:11;0.80;;;0.60;;
43118;SDS011;28729;49.838;8.650;2023-12-22T16:51:13;1.80;;;1.00;;
43118;SDS011;28729;49.838;8.650;2023-12-22T16:55:15;1.00;;;0.40;;
43118;SDS011;28729;49.838;8.650;2023-12-22T16:59:19;1.15;;;0.47;;
43118;SDS011;28729;49.838;8.650;2023-12-22T17:03:21;2.28;;;0.70;;
43118;SDS011;28729;49.838;8.650;2023-12-22T17:07:23;0.67;;;0.60;;
43118;SDS011;28729;49.838;8.650;2023-12-22T17:11:27;0.80;;;0.50;;
43118;SDS011;28729;49.838;8.650;2023-12-22T17:15:28;0.95;;;0.40;;
43118;SDS011;28729;49.838;8.650;2023-12-22T17:19:30;0.35;;;0.35;;
43118;SDS011;28729;49.838;8.650;2023-12-22T17:23:32;0.93;;;0.40;;
43118;SDS011;28729;49.838;8.650;2023-12-22T17:27:34;1.08;;;0.57;;
43118;SDS011;28729;49.838;8.650;2023-12-22T17:31:36;1.95;;;1.40;;
43118;SDS011;28729;49.838;8.650;2023-12-22T17:35:38;4.15;;;2.78;;
43118;SDS011;28729;49.838;8.650;2023-12-22T17:39:39;1.98;;;1.23;;
43118;SDS011;28729;49.838;8.650;2023-12-22T17:43:41;1.63;;;0.60;;
43118;SDS011;28729;49.838;8.650;2023-12-22T17:47:43;0.93;;;0.55;;
43118;SDS011;28729;49.838;8.650;2023-12-22T17:51:44;1.13;;;0.65;;
43118;SDS011;28729;49.838;8.650;2023-12-22T17:55:46;1.30;;;0.70;;
43118;SDS011;28729;49.838;8.650;2023-12-22T17:59:48;2.15;;;0.80;;
43118;SDS011;28729;49.838;8.650;2023-12-22T18:03:50;1.15;;;0.40;;
43118;SDS011;28729;49.838;8.650;2023-12-22T18:07:55;1.13;;;0.70;;
43118;SDS011;28729;49.838;8.650;2023-12-22T18:11:57;2.93;;;0.50;;
43118;SDS011;28729;49.838;8.650;2023-12-22T18:15:59;0.77;;;0.43;;
43118;SDS011;28729;49.838;8.650;2023-12-22T18:20:01;0.40;;;0.40;;
43118;SDS011;28729;49.838;8.650;2023-12-22T18:24:04;0.43;;;0.40;;
43118;SDS011;28729;49.838;8.650;2023-12-22T18:28:06;0.70;;;0.50;;
43118;SDS011;28729;49.838;8.650;2023-12-22T18:32:08;1.75;;;0.47;;
43118;SDS011;28729;49.838;8.650;2023-12-22T18:36:11;0.52;;;0.47;;
43118;SDS011;28729;49.838;8.650;2023-12-22T18:40:13;4.43;;;2.35;;
43118;SDS011;28729;49.838;8.650;2023-12-22T18:44:15;3.03;;;2.30;;
43118;SDS011;28729;49.838;8.650;2023-12-22T18:48:17;3.80;;;0.80;;
43118;SDS011;28729;49.838;8.650;2023-12-22T18:52:19;1.15;;;0.50;;
43118;SDS011;28729;49.838;8.650;2023-12-22T18:56:21;0.57;;;0.57;;
43118;SDS011;28729;49.838;8.650;2023-12-22T19:00:24;0.50;;;0.40;;
43118;SDS011;28729;49.838;8.650;2023-12-22T19:04:26;1.10;;;0.67;;
43118;SDS011;28729;49.838;8.650;2023-12-22T19:08:29;0.93;;;0.70;;
43118;SDS011;28729;49.838;8.650;2023-12-22T19:12:31;2.22;;;0.80;;
43118;SDS011;28729;49.838;8.650;2023-12-22T19:16:33;1.80;;;0.32;;
43118;SDS011;28729;49.838;8.650;2023-12-22T19:20:35;1.75;;;0.93;;
43118;SDS011;28729;49.838;8.650;2023-12-22T19:24:37;0.73;;;0.50;;
43118;SDS011;28729;49.838;8.650;2023-12-22T19:28:39;2.13;;;0.90;;
43118;SDS011;28729;49.838;8.650;2023-12-22T19:32:41;2.75;;;0.82;;
43118;SDS011;28729;49.838;8.650;2023-12-22T19:36:43;3.73;;;1.67;;
43118;SDS011;28729;49.838;8.650;2023-12-22T19:40:45;5.00;;;1.60;;
43118;SDS011;28729;49.838;8.650;2023-12-22T19:44:49;2.88;;;1.00;;
43118;SDS011;28729;49.838;8.650;2023-12-22T19:48:54;1.08;;;0.70;;
43118;SDS011;28729;49.838;8.650;2023-12-22T19:52:56;1.33;;;0.70;;
43118;SDS011;28729;49.838;8.650;2023-12-22T19:56:59;0.85;;;0.50;;
43118;SDS011;28729;49.838;8.650;2023-12-22T20:01:01;2.97;;;0.63;;
43118;SDS011;28729;49.838;8.650;2023-12-22T20:05:03;1.73;;;0.70;;
43118;SDS011;28729;49.838;8.650;2023-12-22T20:09:07;1.23;;;0.70;;
43118;SDS011;28729;49.838;8.650;2023-12-22T20:13:09;0.70;;;0.50;;
43118;SDS011;28729;49.838;8.650;2023-12-22T20:17:11;1.33;;;0.50;;
43118;SDS011;28729;49.838;8.650;2023-12-22T20:21:13;0.57;;;0.40;;
43118;SDS011;28729;49.838;8.650;2023-12-22T20:25:15;0.65;;;0.50;;
43118;SDS011;28729;49.838;8.650;2023-12-22T20:29:17;1.70;;;0.75;;
43118;SDS011;28729;49.838;8.650;2023-12-22T20:33:20;0.63;;;0.50;;
43118;SDS011;28729;49.838;8.650;2023-12-22T20:37:22;1.57;;;0.50;;
43118;SDS011;28729;49.838;8.650;2023-12-22T20:41:24;1.40;;;0.60;;
43118;SDS011;28729;49.838;8.650;2023-12-22T20:45:26;2.60;;;0.50;;
43118;SDS011;28729;49.838;8.650;2023-12-22T20:49:28;1.77;;;0.60;;
43118;SDS011;28729;49.838;8.650;2023-12-22T20:57:32;1.75;;;0.47;;
43118;SDS011;28729;49.838;8.650;2023-12-22T21:01:34;2.95;;;1.02;;
43118;SDS011;28729;49.838;8.650;2023-12-22T21:05:36;1.27;;;0.57;;
43118;SDS011;28729;49.838;8.650;2023-12-22T21:09:38;2.78;;;1.00;;
43118;SDS011;28729;49.838;8.650;2023-12-22T21:13:41;2.45;;;0.73;;
43118;SDS011;28729;49.838;8.650;2023-12-22T21:21:48;1.65;;;0.60;;
43118;SDS011;28729;49.838;8.650;2023-12-22T21:25:50;6.43;;;0.80;;
43118;SDS011;28729;49.838;8.650;2023-12-22T21:29:52;1.23;;;0.63;;
43118;SDS011;28729;49.838;8.650;2023-12-22T21:33:54;4.30;;;1.23;;
43118;SDS011;28729;49.838;8.650;2023-12-22T21:37:56;4.85;;;0.82;;
43118;SDS011;28729;49.838;8.650;2023-12-22T21:41:58;3.50;;;0.70;;
43118;SDS011;28729;49.838;8.650;2023-12-22T21:46:00;2.28;;;0.70;;
43118;SDS011;28729;49.838;8.650;2023-12-22T21:50:02;1.55;;;0.68;;
43118;SDS011;28729;49.838;8.650;2023-12-22T21:54:05;2.65;;;0.75;;
43118;SDS011;28729;49.838;8.650;2023-12-22T21:58:07;1.15;;;0.50;;
43118;SDS011;28729;49.838;8.650;2023-12-22T22:02:09;1.55;;;0.80;;
43118;SDS011;28729;49.838;8.650;2023-12-22T22:06:10;1.17;;;0.67;;
43118;SDS011;28729;49.838;8.650;2023-12-22T22:10:13;5.30;;;0.60;;
43118;SDS011;28729;49.838;8.650;2023-12-22T22:14:15;1.55;;;0.70;;
43118;SDS011;28729;49.838;8.650;2023-12-22T22:18:30;0.65;;;0.50;;
43118;SDS011;28729;49.838;8.650;2023-12-22T22:22:32;2.50;;;0.90;;
43118;SDS011;28729;49.838;8.650;2023-12-22T22:26:33;1.85;;;0.68;;
43118;SDS011;28729;49.838;8.650;2023-12-22T22:30:40;3.50;;;0.63;;
43118;SDS011;28729;49.838;8.650;2023-12-22T22:34:44;4.95;;;0.88;;
43118;SDS011;28729;49.838;8.650;2023-12-22T22:38:46;3.10;;;0.80;;
43118;SDS011;28729;49.838;8.650;2023-12-22T22:42:48;1.77;;;0.73;;
43118;SDS011;28729;49.838;8.650;2023-12-22T22:46:50;1.30;;;1.00;;
43118;SDS011;28729;49.838;8.650;2023-12-22T22:50:52;0.80;;;0.50;;
43118;SDS011;28729;49.838;8.650;2023-12-22T22:54:54;1.83;;;0.83;;
43118;SDS011;28729;49.838;8.650;2023-12-22T22:58:56;0.88;;;0.70;;
43118;SDS011;28729;49.838;8.650;2023-12-22T23:02:58;2.27;;;1.37;;
43118;SDS011;28729;49.838;8.650;2023-12-22T23:07:00;1.90;;;1.03;;
43118;SDS011;28729;49.838;8.650;2023-12-22T23:11:02;1.38;;;0.70;;
43118;SDS011;28729;49.838;8.650;2023-12-22T23:15:04;3.17;;;1.10;;
43118;SDS011;28729;49.838;8.650;2023-12-22T23:19:06;3.75;;;0.90;;
43118;SDS011;28729;49.838;8.650;2023-12-22T23:23:08;1.38;;;0.70;;
43118;SDS011;28729;49.838;8.650;2023-12-22T23:27:10;2.80;;;1.08;;
43118;SDS011;28729;49.838;8.650;2023-12-22T23:31:11;5.47;;;1.25;;
43118;SDS011;28729;49.838;8.650;2023-12-22T23:35:13;0.57;;;0.52;;
43118;SDS011;28729;49.838;8.650;2023-12-22T23:39:15;4.73;;;0.90;;
43118;SDS011;28729;49.838;8.650;2023-12-22T23:43:17;3.28;;;0.73;;
43118;SDS011;28729;49.838;8.650;2023-12-22T23:47:19;2.13;;;0.70;;
43118;SDS011;28729;49.838;8.650;2023-12-22T23:51:21;0.80;;;0.70;;
43118;SDS011;28729;49.838;8.650;2023-12-22T23:55:22;2.90;;;1.00;;
43118;SDS011;28729;49.838;8.650;2023-12-22T23:59:24;3.38;;;0.70;;
